Time;durP1;ratioP1;P1;durP2;ratioP2;P2;SDS_P1;SDS_P2;PMS_P1;PMS_P2;Temp;Humidity;BMP_temperature;BMP_pressure;BME280_temperature;BME280_humidity;BME280_pressure;Samples;Min_cycle;Max_cycle;Signal;HPM_P1;HPM_P2
2022/11/17 00:01:51;;;;;;;1.00;0.65;;;;;;;;;;5100776;28;20090;-71
2022/11/17 00:04:17;;;;;;;2.17;1.10;;;;;;;;;;5102361;28;20043;-71
2022/11/17 00:06:42;;;;;;;2.25;0.65;;;;;;;;;;5102752;28;20807;-71
2022/11/17 00:09:16;;;;;;;3.72;1.02;;;;;;;;;;5085252;28;20027;-71
2022/11/17 00:14:35;;;;;;;1.90;0.88;;;;;;;;;;5102514;28;20046;-71
2022/11/17 00:17:02;;;;;;;1.30;0.70;;;;;;;;;;5084409;28;20085;-71
2022/11/17 00:22:11;;;;;;;6.55;1.05;;;;;;;;;;5102579;28;20057;-71
2022/11/17 00:24:36;;;;;;;2.30;1.00;;;;;;;;;;5099468;28;20032;-71
2022/11/17 00:27:02;;;;;;;5.53;0.80;;;;;;;;;;5103130;28;20055;-71
2022/11/17 00:29:28;;;;;;;5.50;1.00;;;;;;;;;;5102595;28;20120;-71
2022/11/17 00:34:38;;;;;;;4.85;0.93;;;;;;;;;;5104995;28;20139;-71
2022/11/17 00:37:04;;;;;;;7.28;0.70;;;;;;;;;;5106320;28;20566;-71
2022/11/17 00:39:30;;;;;;;4.35;0.60;;;;;;;;;;5106489;28;20023;-71
2022/11/17 00:41:55;;;;;;;4.90;1.05;;;;;;;;;;5107119;28;20023;-71
2022/11/17 00:44:21;;;;;;;4.72;0.98;;;;;;;;;;5106058;28;20047;-71
2022/11/17 00:46:47;;;;;;;2.33;0.70;;;;;;;;;;5102515;28;20053;-71
2022/11/17 00:49:13;;;;;;;4.00;1.13;;;;;;;;;;5106717;28;20035;-71
2022/11/17 00:51:38;;;;;;;2.38;0.80;;;;;;;;;;5106248;28;20019;-71
2022/11/17 00:54:05;;;;;;;0.50;0.50;;;;;;;;;;5105380;28;20600;-71
2022/11/17 00:56:31;;;;;;;5.55;1.23;;;;;;;;;;5106225;28;20039;-71
2022/11/17 00:58:56;;;;;;;6.10;1.02;;;;;;;;;;5106051;28;20409;-71
2022/11/17 01:01:22;;;;;;;3.60;0.95;;;;;;;;;;5106035;28;20116;-71
2022/11/17 01:03:47;;;;;;;2.63;1.17;;;;;;;;;;5104025;28;20123;-71
2022/11/17 01:06:18;;;;;;;0.80;0.50;;;;;;;;;;5106948;28;20123;-71
2022/11/17 01:08:44;;;;;;;3.63;0.55;;;;;;;;;;5105784;28;20042;-71
2022/11/17 01:11:15;;;;;;;2.72;0.77;;;;;;;;;;5085826;28;20031;-71
2022/11/17 01:13:41;;;;;;;2.80;0.60;;;;;;;;;;5087472;28;20036;-71
2022/11/17 01:16:16;;;;;;;1.60;0.88;;;;;;;;;;5105814;28;20039;-71
2022/11/17 01:18:43;;;;;;;6.38;1.02;;;;;;;;;;5086945;28;20044;-71
2022/11/17 01:21:11;;;;;;;3.38;1.33;;;;;;;;;;5086999;28;20042;-71
2022/11/17 01:23:38;;;;;;;1.48;0.70;;;;;;;;;;5104106;28;20155;-71
2022/11/17 01:26:10;;;;;;;3.22;1.10;;;;;;;;;;5101798;28;20044;-71
2022/11/17 01:28:36;;;;;;;5.05;1.38;;;;;;;;;;5102988;28;20028;-72
2022/11/17 01:31:04;;;;;;;1.38;0.63;;;;;;;;;;5105414;28;20119;-71
2022/11/17 01:33:30;;;;;;;3.50;0.75;;;;;;;;;;5103281;28;20030;-72
2022/11/17 01:36:00;;;;;;;2.47;1.25;;;;;;;;;;5087280;28;20027;-71
2022/11/17 01:38:26;;;;;;;2.42;0.70;;;;;;;;;;5087060;28;20048;-71
2022/11/17 01:40:51;;;;;;;2.67;0.60;;;;;;;;;;5092245;28;20440;-71
2022/11/17 01:43:16;;;;;;;4.78;0.90;;;;;;;;;;5084687;28;20044;-71
2022/11/17 01:45:42;;;;;;;3.28;1.10;;;;;;;;;;5083268;28;20071;-72
2022/11/17 01:48:13;;;;;;;2.50;1.05;;;;;;;;;;5084969;28;20040;-72
2022/11/17 01:50:46;;;;;;;0.85;0.70;;;;;;;;;;5083196;28;20451;-71
2022/11/17 01:53:16;;;;;;;5.78;1.13;;;;;;;;;;5075468;28;20032;-71
2022/11/17 01:55:55;;;;;;;5.10;0.88;;;;;;;;;;5083365;28;20104;-72
2022/11/17 01:58:26;;;;;;;2.95;1.02;;;;;;;;;;5084694;28;20111;-71
2022/11/17 02:00:53;;;;;;;7.32;0.80;;;;;;;;;;5084304;28;20028;-71
2022/11/17 02:03:18;;;;;;;10.65;1.23;;;;;;;;;;5084365;28;20067;-71
2022/11/17 02:06:05;;;;;;;2.10;0.88;;;;;;;;;;5083711;28;20064;-71
2022/11/17 02:08:32;;;;;;;5.15;0.90;;;;;;;;;;5084598;28;20070;-71
2022/11/17 02:11:01;;;;;;;1.67;0.50;;;;;;;;;;5099576;28;20040;-71
2022/11/17 02:13:27;;;;;;;5.32;1.10;;;;;;;;;;5087204;28;20074;-71
2022/11/17 02:15:52;;;;;;;4.13;0.75;;;;;;;;;;5066053;28;20412;-71
2022/11/17 02:18:18;;;;;;;1.02;0.55;;;;;;;;;;5084093;28;20027;-71
2022/11/17 02:21:19;;;;;;;4.85;1.10;;;;;;;;;;5082636;28;20210;-71
2022/11/17 02:24:07;;;;;;;6.18;1.05;;;;;;;;;;5074092;28;20046;-71
2022/11/17 02:26:57;;;;;;;1.83;0.70;;;;;;;;;;5065104;28;20206;-71
2022/11/17 02:29:38;;;;;;;1.33;0.90;;;;;;;;;;5072078;28;20060;-71
2022/11/17 02:32:08;;;;;;;3.95;1.02;;;;;;;;;;5064654;28;20041;-71
2022/11/17 02:34:48;;;;;;;4.95;1.20;;;;;;;;;;5080912;28;20055;-70
2022/11/17 02:37:26;;;;;;;1.45;0.70;;;;;;;;;;5084594;28;20058;-71
2022/11/17 02:40:23;;;;;;;4.85;1.17;;;;;;;;;;5082867;28;20032;-71
2022/11/17 02:45:52;;;;;;;3.37;0.80;;;;;;;;;;5084954;28;20046;-71
2022/11/17 02:48:24;;;;;;;1.50;0.65;;;;;;;;;;5083496;28;21033;-70
2022/11/17 02:50:51;;;;;;;2.20;0.82;;;;;;;;;;5084109;28;20114;-71
2022/11/17 02:53:17;;;;;;;2.60;0.80;;;;;;;;;;5084250;28;20544;-71
2022/11/17 02:55:49;;;;;;;3.70;0.98;;;;;;;;;;5080691;28;20038;-71
2022/11/17 02:58:14;;;;;;;5.03;1.20;;;;;;;;;;5082423;28;20083;-71
2022/11/17 03:00:58;;;;;;;2.53;0.47;;;;;;;;;;5082970;28;20032;-71
2022/11/17 03:03:38;;;;;;;3.97;1.17;;;;;;;;;;5082893;28;20024;-71
2022/11/17 03:06:17;;;;;;;5.85;0.98;;;;;;;;;;5063390;28;20028;-71
2022/11/17 03:09:00;;;;;;;7.47;1.13;;;;;;;;;;5063690;28;20040;-71
2022/11/17 03:11:41;;;;;;;11.02;1.60;;;;;;;;;;5063836;28;20032;-71
2022/11/17 03:14:40;;;;;;;7.50;1.13;;;;;;;;;;5082203;28;20040;-71
2022/11/17 03:17:14;;;;;;;4.78;1.45;;;;;;;;;;5082917;28;20043;-71
2022/11/17 03:19:44;;;;;;;10.65;1.25;;;;;;;;;;5083835;28;20964;-72
2022/11/17 03:22:24;;;;;;;4.88;0.82;;;;;;;;;;5080100;28;20549;-71
2022/11/17 03:24:53;;;;;;;6.45;1.35;;;;;;;;;;5084114;28;20093;-72
2022/11/17 03:27:24;;;;;;;5.72;1.25;;;;;;;;;;5083825;28;20127;-71
2022/11/17 03:29:53;;;;;;;5.97;1.15;;;;;;;;;;5084601;28;20044;-71
2022/11/17 03:32:21;;;;;;;3.58;0.95;;;;;;;;;;5085452;28;20081;-71
2022/11/17 03:34:51;;;;;;;4.45;1.48;;;;;;;;;;5083805;28;20032;-71
2022/11/17 03:37:20;;;;;;;2.97;0.80;;;;;;;;;;5085720;28;20036;-71
2022/11/17 03:39:51;;;;;;;6.15;1.33;;;;;;;;;;5085694;28;20034;-71
2022/11/17 03:42:24;;;;;;;5.93;1.20;;;;;;;;;;5085484;28;20484;-71
2022/11/17 03:44:57;;;;;;;3.25;0.82;;;;;;;;;;5085677;28;20036;-71
2022/11/17 03:47:25;;;;;;;6.05;0.80;;;;;;;;;;5085925;28;20072;-71
2022/11/17 03:49:58;;;;;;;1.60;0.68;;;;;;;;;;5085522;28;20036;-71
2022/11/17 03:52:24;;;;;;;3.70;0.90;;;;;;;;;;5081449;28;20496;-71
2022/11/17 03:54:51;;;;;;;2.60;0.68;;;;;;;;;;5084182;28;20028;-71
2022/11/17 03:57:42;;;;;;;3.17;0.65;;;;;;;;;;5085792;28;20028;-71
2022/11/17 04:00:10;;;;;;;2.45;0.70;;;;;;;;;;5085974;28;20089;-71
2022/11/17 04:02:40;;;;;;;4.57;0.90;;;;;;;;;;5085420;28;20059;-71
2022/11/17 04:05:06;;;;;;;2.67;0.65;;;;;;;;;;5081971;28;20586;-72
2022/11/17 04:07:41;;;;;;;2.70;0.60;;;;;;;;;;5071584;28;20029;-71
2022/11/17 04:10:10;;;;;;;4.93;0.40;;;;;;;;;;5068889;28;20040;-72
2022/11/17 04:18:03;;;;;;;1.17;0.30;;;;;;;;;;5088484;28;20682;-71
2022/11/17 04:20:34;;;;;;;0.95;0.50;;;;;;;;;;5086724;28;20127;-71
2022/11/17 04:23:07;;;;;;;0.93;0.40;;;;;;;;;;5086910;28;20036;-71
2022/11/17 04:28:35;;;;;;;8.52;0.85;;;;;;;;;;5089136;28;20043;-71
2022/11/17 04:31:16;;;;;;;1.42;0.40;;;;;;;;;;5088718;28;20028;-71
2022/11/17 04:34:04;;;;;;;0.88;0.50;;;;;;;;;;5088667;28;20032;-72
2022/11/17 04:36:43;;;;;;;1.15;0.55;;;;;;;;;;5077996;28;20123;-71
2022/11/17 04:39:09;;;;;;;0.93;0.50;;;;;;;;;;5087839;28;20024;-71
2022/11/17 04:41:53;;;;;;;1.10;0.30;;;;;;;;;;5083029;28;20609;-71
2022/11/17 04:44:30;;;;;;;1.42;0.38;;;;;;;;;;5084692;28;20040;-72
2022/11/17 04:46:56;;;;;;;0.30;0.30;;;;;;;;;;5087089;28;20039;-71
2022/11/17 04:49:23;;;;;;;2.25;0.70;;;;;;;;;;5089176;28;20062;-71
2022/11/17 04:51:49;;;;;;;3.65;0.60;;;;;;;;;;5087273;28;20035;-72
2022/11/17 04:54:17;;;;;;;1.35;0.60;;;;;;;;;;5088143;28;20019;-71
2022/11/17 04:56:43;;;;;;;3.20;0.40;;;;;;;;;;5088390;28;20029;-71
2022/11/17 04:59:09;;;;;;;2.13;0.60;;;;;;;;;;5088810;28;20076;-71
2022/11/17 05:01:34;;;;;;;1.25;0.43;;;;;;;;;;5086974;28;20491;-71
2022/11/17 05:04:02;;;;;;;2.20;0.57;;;;;;;;;;5087041;28;20142;-71
2022/11/17 05:06:33;;;;;;;2.38;0.63;;;;;;;;;;5088641;28;20034;-71
2022/11/17 05:09:05;;;;;;;1.90;0.40;;;;;;;;;;5088865;28;20188;-71
2022/11/17 05:14:17;;;;;;;0.30;0.30;;;;;;;;;;5088393;28;20089;-71
2022/11/17 05:19:28;;;;;;;1.55;0.63;;;;;;;;;;5088056;28;20093;-71
2022/11/17 05:21:55;;;;;;;0.88;0.50;;;;;;;;;;5087523;28;20469;-71
2022/11/17 05:24:20;;;;;;;0.60;0.52;;;;;;;;;;5087013;28;20012;-71
2022/11/17 05:26:47;;;;;;;2.63;0.40;;;;;;;;;;5086643;28;20052;-72
2022/11/17 05:29:15;;;;;;;2.20;0.55;;;;;;;;;;5087565;28;20043;-71
2022/11/17 05:31:40;;;;;;;0.88;0.50;;;;;;;;;;5088138;28;20536;-72
2022/11/17 05:34:08;;;;;;;1.38;0.77;;;;;;;;;;5087193;28;20074;-71
2022/11/17 05:36:34;;;;;;;0.30;0.30;;;;;;;;;;5088639;28;20028;-72
2022/11/17 05:38:59;;;;;;;1.55;0.50;;;;;;;;;;5087763;28;20028;-71
2022/11/17 05:41:25;;;;;;;0.47;0.40;;;;;;;;;;5086462;28;20460;-71
2022/11/17 05:43:51;;;;;;;2.25;0.50;;;;;;;;;;5087017;28;20040;-72
2022/11/17 05:46:18;;;;;;;2.30;0.65;;;;;;;;;;5084245;28;20753;-71
2022/11/17 05:48:44;;;;;;;2.63;0.50;;;;;;;;;;5086879;28;20024;-71
2022/11/17 05:51:10;;;;;;;2.33;0.50;;;;;;;;;;5088200;28;20115;-71
2022/11/17 05:53:36;;;;;;;3.88;0.75;;;;;;;;;;5087298;28;20505;-72
2022/11/17 05:56:29;;;;;;;1.13;0.90;;;;;;;;;;5087592;28;20115;-71
2022/11/17 05:59:05;;;;;;;1.57;0.47;;;;;;;;;;5067295;28;20063;-71
2022/11/17 06:01:32;;;;;;;2.78;0.88;;;;;;;;;;5066796;28;20029;-71
2022/11/17 06:04:02;;;;;;;2.05;0.63;;;;;;;;;;5066947;28;20045;-71
2022/11/17 06:06:27;;;;;;;2.90;0.60;;;;;;;;;;5076263;28;20053;-71
2022/11/17 06:08:53;;;;;;;1.15;0.55;;;;;;;;;;5075469;28;20014;-71
2022/11/17 06:11:18;;;;;;;2.60;0.65;;;;;;;;;;5084448;28;20040;-72
2022/11/17 06:13:43;;;;;;;1.08;0.60;;;;;;;;;;5087027;28;20410;-71
2022/11/17 06:16:13;;;;;;;1.52;0.45;;;;;;;;;;5087065;28;20043;-71
2022/11/17 06:18:47;;;;;;;3.90;0.57;;;;;;;;;;5085394;28;20745;-71
2022/11/17 06:21:14;;;;;;;2.35;0.57;;;;;;;;;;5087543;28;20024;-72
2022/11/17 06:23:40;;;;;;;2.70;0.75;;;;;;;;;;5084441;28;20058;-72
2022/11/17 06:26:07;;;;;;;0.50;0.47;;;;;;;;;;5082773;28;20146;-71
2022/11/17 06:28:35;;;;;;;4.50;0.70;;;;;;;;;;5067633;28;20466;-71
2022/11/17 06:31:01;;;;;;;2.22;0.60;;;;;;;;;;5085935;28;20044;-71
2022/11/17 06:33:29;;;;;;;0.73;0.70;;;;;;;;;;5083011;28;20074;-71
2022/11/17 06:35:55;;;;;;;2.75;0.50;;;;;;;;;;5066531;28;20028;-71
2022/11/17 06:38:21;;;;;;;0.93;0.50;;;;;;;;;;5066255;28;20509;-71
2022/11/17 06:40:46;;;;;;;0.40;0.40;;;;;;;;;;5067618;28;20020;-71
2022/11/17 06:43:12;;;;;;;5.78;0.70;;;;;;;;;;5065811;28;20040;-71
2022/11/17 06:45:42;;;;;;;0.75;0.75;;;;;;;;;;5085766;28;20046;-71
2022/11/17 06:48:10;;;;;;;2.47;0.60;;;;;;;;;;5087133;28;20103;-71
2022/11/17 06:50:35;;;;;;;1.55;0.65;;;;;;;;;;5074971;28;20055;-71
2022/11/17 06:53:03;;;;;;;2.50;0.47;;;;;;;;;;5086205;28;20055;-71
2022/11/17 06:55:29;;;;;;;0.98;0.68;;;;;;;;;;5086727;28;20470;-71
2022/11/17 06:58:05;;;;;;;4.22;0.85;;;;;;;;;;5084858;28;20028;-71
2022/11/17 07:00:31;;;;;;;1.25;0.50;;;;;;;;;;5067711;28;20528;-71
2022/11/17 07:03:03;;;;;;;0.73;0.63;;;;;;;;;;5086794;28;20039;-72
2022/11/17 07:05:30;;;;;;;2.85;0.70;;;;;;;;;;5086250;28;20032;-72
2022/11/17 07:07:57;;;;;;;1.45;0.60;;;;;;;;;;5085903;28;20492;-71
2022/11/17 07:10:23;;;;;;;1.40;0.60;;;;;;;;;;5086130;28;20516;-71
2022/11/17 07:12:48;;;;;;;0.60;0.60;;;;;;;;;;5085803;28;20101;-71
2022/11/17 07:15:13;;;;;;;0.68;0.50;;;;;;;;;;5084282;28;20627;-71
2022/11/17 07:17:39;;;;;;;2.38;0.73;;;;;;;;;;5081385;28;20043;-71
2022/11/17 07:20:05;;;;;;;1.58;0.47;;;;;;;;;;5068190;28;20078;-71
2022/11/17 07:22:30;;;;;;;0.60;0.60;;;;;;;;;;5118455;27;20472;-71
2022/11/17 07:24:55;;;;;;;2.15;0.63;;;;;;;;;;5084006;28;20111;-71
2022/11/17 07:27:21;;;;;;;1.40;0.60;;;;;;;;;;5085919;28;20081;-72
2022/11/17 07:29:46;;;;;;;1.15;0.65;;;;;;;;;;5085959;28;20032;-71
2022/11/17 07:32:12;;;;;;;0.50;0.50;;;;;;;;;;5084561;28;20081;-72
2022/11/17 07:34:38;;;;;;;3.53;0.55;;;;;;;;;;5084033;28;20039;-71
2022/11/17 07:37:04;;;;;;;3.22;0.55;;;;;;;;;;5082029;28;20031;-71
2022/11/17 07:39:29;;;;;;;1.38;0.63;;;;;;;;;;5072240;28;20115;-71
2022/11/17 07:41:55;;;;;;;3.15;0.50;;;;;;;;;;5061423;28;20609;-71
2022/11/17 07:44:20;;;;;;;0.45;0.40;;;;;;;;;;5071512;28;20559;-71
2022/11/17 07:46:45;;;;;;;0.77;0.43;;;;;;;;;;5070786;28;20972;-71
2022/11/17 07:49:11;;;;;;;0.43;0.30;;;;;;;;;;5101144;28;20040;-71
2022/11/17 07:51:36;;;;;;;2.78;0.75;;;;;;;;;;5089211;28;20610;-71
2022/11/17 07:54:02;;;;;;;1.23;0.50;;;;;;;;;;5051951;28;20029;-71
2022/11/17 07:56:27;;;;;;;3.13;0.93;;;;;;;;;;5065142;28;20039;-71
2022/11/17 07:58:52;;;;;;;1.95;0.50;;;;;;;;;;5064494;28;20507;-71
2022/11/17 08:01:18;;;;;;;1.55;0.50;;;;;;;;;;5070855;28;20044;-70
2022/11/17 08:03:43;;;;;;;6.53;0.80;;;;;;;;;;5071729;28;20040;-71
2022/11/17 08:06:08;;;;;;;2.63;0.70;;;;;;;;;;5051594;28;21197;-71
2022/11/17 08:08:34;;;;;;;3.17;0.70;;;;;;;;;;5080548;28;20062;-71
2022/11/17 08:11:08;;;;;;;0.82;0.43;;;;;;;;;;5080676;28;20036;-71
2022/11/17 08:13:34;;;;;;;;;;;;;;;;;;5085641;28;20441;-71
2022/11/17 08:15:59;;;;;;;1.20;0.52;;;;;;;;;;5083734;28;19965;-71
2022/11/17 08:18:25;;;;;;;0.50;0.40;;;;;;;;;;5081327;28;20071;-71
2022/11/17 08:20:50;;;;;;;2.78;0.52;;;;;;;;;;5066908;28;20035;-71
2022/11/17 08:23:16;;;;;;;2.05;0.68;;;;;;;;;;5085745;28;20020;-71
2022/11/17 08:25:41;;;;;;;2.28;0.60;;;;;;;;;;5080036;28;20051;-70
2022/11/17 08:28:06;;;;;;;1.98;0.70;;;;;;;;;;5084946;28;20040;-71
2022/11/17 08:30:34;;;;;;;1.67;0.40;;;;;;;;;;5085172;28;20024;-70
2022/11/17 08:32:59;;;;;;;1.33;0.63;;;;;;;;;;5085049;28;20103;-71
2022/11/17 08:35:25;;;;;;;3.72;0.73;;;;;;;;;;5086666;28;20100;-71
2022/11/17 08:37:52;;;;;;;2.88;0.68;;;;;;;;;;5084415;28;20036;-71
2022/11/17 08:40:18;;;;;;;1.40;0.63;;;;;;;;;;5106183;28;20092;-71
2022/11/17 08:42:43;;;;;;;1.05;0.65;;;;;;;;;;5104301;28;20043;-71
2022/11/17 08:45:09;;;;;;;2.13;0.85;;;;;;;;;;5105215;28;20031;-71
2022/11/17 08:47:35;;;;;;;2.63;0.80;;;;;;;;;;5105815;28;20103;-71
2022/11/17 08:50:01;;;;;;;0.63;0.60;;;;;;;;;;5103748;28;20438;-70
2022/11/17 08:52:27;;;;;;;0.40;0.40;;;;;;;;;;5087983;28;20596;-71
2022/11/17 08:54:53;;;;;;;3.17;0.55;;;;;;;;;;5107183;28;20043;-70
2022/11/17 08:57:20;;;;;;;2.40;0.88;;;;;;;;;;5091223;28;20024;-70
2022/11/17 08:59:46;;;;;;;2.47;0.80;;;;;;;;;;5110312;28;20027;-70
2022/11/17 09:02:11;;;;;;;1.73;0.70;;;;;;;;;;5109140;28;20507;-70
2022/11/17 09:04:37;;;;;;;2.08;0.70;;;;;;;;;;5090409;28;20122;-70
2022/11/17 09:07:02;;;;;;;4.63;0.80;;;;;;;;;;5108514;28;20535;-70
2022/11/17 09:09:30;;;;;;;1.60;0.65;;;;;;;;;;5109285;28;20035;-71
2022/11/17 09:11:56;;;;;;;2.85;0.68;;;;;;;;;;5093814;28;20524;-71
2022/11/17 09:14:21;;;;;;;3.50;0.70;;;;;;;;;;5098233;28;20020;-70
2022/11/17 09:16:47;;;;;;;1.30;0.73;;;;;;;;;;5085626;28;20031;-70
2022/11/17 09:19:12;;;;;;;2.92;0.57;;;;;;;;;;5102309;28;20109;-71
2022/11/17 09:21:37;;;;;;;5.78;1.00;;;;;;;;;;5108018;28;20031;-71
2022/11/17 09:24:03;;;;;;;2.67;0.60;;;;;;;;;;5087252;28;20077;-70
2022/11/17 09:26:28;;;;;;;5.50;0.80;;;;;;;;;;5106977;28;20776;-71
2022/11/17 09:28:53;;;;;;;2.03;0.75;;;;;;;;;;5105465;28;20039;-71
2022/11/17 09:31:20;;;;;;;3.00;0.70;;;;;;;;;;5107776;28;20032;-71
2022/11/17 09:33:46;;;;;;;2.50;0.75;;;;;;;;;;5080930;28;20451;-71
2022/11/17 09:36:13;;;;;;;5.70;1.00;;;;;;;;;;5088038;28;20032;-71
2022/11/17 09:38:39;;;;;;;3.03;1.42;;;;;;;;;;5089240;28;20020;-71
2022/11/17 09:41:20;;;;;;;2.20;0.57;;;;;;;;;;5069939;28;20032;-71
2022/11/17 09:44:24;;;;;;;4.25;0.75;;;;;;;;;;5088004;28;20036;-71
2022/11/17 09:46:53;;;;;;;2.70;0.70;;;;;;;;;;5080419;28;20122;-71
2022/11/17 09:49:36;;;;;;;2.40;1.00;;;;;;;;;;5106298;28;20173;-71
2022/11/17 09:52:39;;;;;;;0.65;0.50;;;;;;;;;;5101639;28;20073;-71
2022/11/17 09:55:07;;;;;;;3.08;0.70;;;;;;;;;;5104431;28;20123;-71
2022/11/17 09:57:57;;;;;;;4.43;0.70;;;;;;;;;;5106944;28;20027;-70
2022/11/17 10:00:23;;;;;;;3.15;0.50;;;;;;;;;;5088062;28;20063;-71
2022/11/17 10:02:49;;;;;;;0.98;0.50;;;;;;;;;;5070650;28;20469;-71
2022/11/17 10:05:30;;;;;;;0.55;0.55;;;;;;;;;;5094467;28;20023;-71
2022/11/17 10:08:05;;;;;;;2.08;0.50;;;;;;;;;;5101960;28;20531;-71
2022/11/17 10:10:42;;;;;;;0.82;0.68;;;;;;;;;;5089635;28;20023;-71
2022/11/17 10:13:29;;;;;;;1.00;0.80;;;;;;;;;;5089241;28;20484;-71
2022/11/17 10:16:01;;;;;;;1.77;0.60;;;;;;;;;;5107491;28;20035;-71
2022/11/17 10:18:29;;;;;;;3.38;0.90;;;;;;;;;;5106048;28;20429;-71
2022/11/17 10:20:54;;;;;;;1.42;0.57;;;;;;;;;;5106024;28;20031;-71
2022/11/17 10:23:20;;;;;;;2.67;0.70;;;;;;;;;;5107205;28;20020;-71
2022/11/17 10:25:54;;;;;;;1.88;0.70;;;;;;;;;;5106812;28;20060;-71
2022/11/17 10:28:24;;;;;;;1.05;0.70;;;;;;;;;;5106644;28;20039;-71
2022/11/17 10:30:55;;;;;;;4.80;0.65;;;;;;;;;;5105765;28;20055;-71
2022/11/17 10:33:32;;;;;;;5.68;0.88;;;;;;;;;;5104262;28;20062;-71
2022/11/17 10:35:58;;;;;;;2.10;1.10;;;;;;;;;;5088600;28;20050;-71
2022/11/17 10:38:27;;;;;;;1.65;0.80;;;;;;;;;;5106631;28;20030;-71
2022/11/17 10:40:54;;;;;;;0.50;0.50;;;;;;;;;;5107417;28;20715;-71
2022/11/17 10:43:35;;;;;;;3.13;0.70;;;;;;;;;;5107204;28;20043;-71
2022/11/17 10:46:05;;;;;;;1.23;0.70;;;;;;;;;;5106490;28;20030;-71
2022/11/17 10:48:35;;;;;;;2.35;0.75;;;;;;;;;;5088825;28;20032;-71
2022/11/17 10:51:08;;;;;;;1.05;0.70;;;;;;;;;;5107127;28;20106;-71
2022/11/17 10:53:42;;;;;;;2.75;0.80;;;;;;;;;;5107956;28;20016;-71
2022/11/17 10:56:08;;;;;;;1.30;0.98;;;;;;;;;;5088245;28;20516;-71
2022/11/17 10:59:00;;;;;;;1.08;0.70;;;;;;;;;;5088869;28;20039;-71
2022/11/17 11:01:37;;;;;;;1.10;0.70;;;;;;;;;;5089465;28;20051;-71
2022/11/17 11:04:04;;;;;;;0.90;0.63;;;;;;;;;;5105269;28;20424;-71
2022/11/17 11:06:31;;;;;;;2.92;0.70;;;;;;;;;;5104279;28;20027;-71
2022/11/17 11:09:13;;;;;;;1.92;0.60;;;;;;;;;;5084518;28;20027;-71
2022/11/17 11:11:42;;;;;;;2.17;0.90;;;;;;;;;;5106829;28;20015;-71
2022/11/17 11:14:32;;;;;;;2.70;0.73;;;;;;;;;;5106450;28;20446;-71
2022/11/17 11:16:58;;;;;;;4.00;0.50;;;;;;;;;;5084527;28;20540;-71
2022/11/17 11:19:24;;;;;;;0.73;0.60;;;;;;;;;;5087622;28;20042;-71
2022/11/17 11:22:09;;;;;;;1.00;0.70;;;;;;;;;;5088337;28;20033;-71
2022/11/17 11:24:59;;;;;;;1.67;0.70;;;;;;;;;;5102121;28;20039;-71
2022/11/17 11:27:34;;;;;;;1.08;0.95;;;;;;;;;;5104873;28;20122;-72
2022/11/17 11:30:10;;;;;;;1.08;0.70;;;;;;;;;;5106636;28;20211;-71
2022/11/17 11:32:59;;;;;;;1.63;0.70;;;;;;;;;;5106382;28;20023;-72
2022/11/17 11:35:40;;;;;;;2.13;0.75;;;;;;;;;;5110093;27;20104;-72
2022/11/17 11:38:17;;;;;;;1.30;0.50;;;;;;;;;;5094156;28;20580;-71
2022/11/17 11:40:57;;;;;;;1.52;1.08;;;;;;;;;;5088900;28;20040;-71
2022/11/17 11:43:55;;;;;;;1.77;0.80;;;;;;;;;;5080594;28;20036;-72
2022/11/17 11:46:32;;;;;;;0.68;0.68;;;;;;;;;;5040673;28;20045;-72
2022/11/17 11:49:22;;;;;;;2.63;0.60;;;;;;;;;;5063867;28;20096;-72
2022/11/17 11:51:49;;;;;;;0.40;0.40;;;;;;;;;;5057643;28;20437;-72
2022/11/17 11:54:25;;;;;;;1.85;0.65;;;;;;;;;;5065776;28;20036;-72
2022/11/17 11:56:51;;;;;;;2.65;0.93;;;;;;;;;;5073504;28;20168;-71
2022/11/17 11:59:48;;;;;;;1.83;0.60;;;;;;;;;;5086513;28;20126;-71
2022/11/17 12:02:52;;;;;;;1.02;0.73;;;;;;;;;;5066840;28;20044;-71
2022/11/17 12:05:22;;;;;;;3.15;0.60;;;;;;;;;;5087498;28;20060;-71
2022/11/17 12:08:08;;;;;;;1.23;0.60;;;;;;;;;;5088303;28;20036;-71
2022/11/17 12:10:52;;;;;;;0.43;0.43;;;;;;;;;;5070884;28;20517;-72
2022/11/17 12:13:20;;;;;;;0.68;0.60;;;;;;;;;;5068396;28;20028;-71
2022/11/17 12:15:46;;;;;;;0.85;0.60;;;;;;;;;;5064815;28;20020;-72
2022/11/17 12:18:18;;;;;;;2.78;0.70;;;;;;;;;;5077491;28;20440;-72
2022/11/17 12:20:46;;;;;;;0.50;0.50;;;;;;;;;;5066012;28;20025;-72
2022/11/17 12:23:25;;;;;;;5.78;0.60;;;;;;;;;;5065580;28;20032;-72
2022/11/17 12:25:53;;;;;;;0.85;0.57;;;;;;;;;;5081214;28;20059;-72
2022/11/17 12:28:27;;;;;;;0.50;0.50;;;;;;;;;;5085063;28;20609;-72
2022/11/17 12:30:58;;;;;;;1.75;0.60;;;;;;;;;;5092595;28;20066;-72
2022/11/17 12:33:52;;;;;;;1.23;0.75;;;;;;;;;;5091741;28;20058;-72
2022/11/17 12:36:30;;;;;;;1.80;0.75;;;;;;;;;;5109982;28;20028;-72
2022/11/17 12:38:56;;;;;;;1.42;0.50;;;;;;;;;;5110015;28;20137;-71
2022/11/17 12:41:47;;;;;;;1.75;0.55;;;;;;;;;;5109060;28;20403;-72
2022/11/17 12:44:31;;;;;;;1.40;0.52;;;;;;;;;;5110161;28;20078;-72
2022/11/17 12:47:08;;;;;;;2.53;0.70;;;;;;;;;;5109209;28;20071;-72
2022/11/17 12:49:54;;;;;;;3.05;0.70;;;;;;;;;;5091027;28;20093;-72
2022/11/17 12:52:44;;;;;;;2.50;0.60;;;;;;;;;;5109440;28;20258;-72
2022/11/17 12:55:19;;;;;;;1.48;0.70;;;;;;;;;;5087536;28;20652;-72
2022/11/17 12:57:49;;;;;;;1.15;0.70;;;;;;;;;;5108172;28;20024;-72
2022/11/17 13:00:18;;;;;;;0.75;0.70;;;;;;;;;;5109544;28;20032;-72
2022/11/17 13:02:56;;;;;;;2.20;0.77;;;;;;;;;;5109407;28;20024;-72
2022/11/17 13:05:24;;;;;;;0.47;0.47;;;;;;;;;;5109656;28;20035;-72
2022/11/17 13:08:06;;;;;;;0.70;0.70;;;;;;;;;;5108761;28;20039;-72
2022/11/17 13:10:31;;;;;;;1.63;0.70;;;;;;;;;;5107805;28;20469;-72
2022/11/17 13:13:09;;;;;;;1.50;0.60;;;;;;;;;;5108496;28;20035;-72
2022/11/17 13:15:35;;;;;;;2.42;0.70;;;;;;;;;;5108276;28;20432;-72
2022/11/17 13:18:00;;;;;;;3.20;0.80;;;;;;;;;;5107937;28;20564;-73
2022/11/17 13:20:28;;;;;;;3.28;0.70;;;;;;;;;;5108158;28;20056;-72
2022/11/17 13:23:21;;;;;;;3.05;0.60;;;;;;;;;;5107843;28;20035;-72
2022/11/17 13:25:47;;;;;;;0.63;0.60;;;;;;;;;;5104847;28;20038;-72
2022/11/17 13:28:29;;;;;;;0.50;0.50;;;;;;;;;;5107031;28;20036;-72
2022/11/17 13:30:55;;;;;;;1.95;0.80;;;;;;;;;;5107293;28;20031;-72
2022/11/17 13:33:23;;;;;;;1.38;0.75;;;;;;;;;;5101314;28;20527;-72
2022/11/17 13:36:02;;;;;;;1.52;0.90;;;;;;;;;;5069469;28;20503;-72
2022/11/17 13:38:28;;;;;;;0.77;0.77;;;;;;;;;;5088428;28;20072;-72
2022/11/17 13:40:53;;;;;;;1.40;0.70;;;;;;;;;;5088512;28;20173;-72
2022/11/17 13:43:21;;;;;;;1.45;0.70;;;;;;;;;;5088272;28;20066;-72
2022/11/17 13:45:50;;;;;;;0.50;0.50;;;;;;;;;;5100666;28;20036;-72
2022/11/17 13:48:33;;;;;;;0.90;0.60;;;;;;;;;;5106716;28;20123;-72
2022/11/17 13:51:22;;;;;;;0.60;0.50;;;;;;;;;;5108427;28;20023;-72
2022/11/17 13:54:15;;;;;;;0.80;0.70;;;;;;;;;;5108279;28;20082;-72
2022/11/17 13:56:46;;;;;;;2.33;0.70;;;;;;;;;;5108269;28;20553;-72
2022/11/17 13:59:32;;;;;;;2.88;0.63;;;;;;;;;;5108450;28;20077;-72
2022/11/17 14:02:15;;;;;;;0.90;0.75;;;;;;;;;;5108104;28;20028;-72
2022/11/17 14:04:41;;;;;;;;;;;;;;;;;;5106091;28;20042;-72
2022/11/17 14:07:09;;;;;;;0.80;0.50;;;;;;;;;;5107886;28;19915;-72
2022/11/17 14:09:35;;;;;;;1.58;0.70;;;;;;;;;;5108299;28;20114;-72
2022/11/17 14:12:08;;;;;;;0.77;0.65;;;;;;;;;;5108278;28;20038;-72
2022/11/17 14:14:40;;;;;;;1.30;0.75;;;;;;;;;;5089678;28;20016;-72
2022/11/17 14:17:18;;;;;;;0.73;0.55;;;;;;;;;;5108152;28;20051;-72
2022/11/17 14:19:43;;;;;;;3.33;0.70;;;;;;;;;;5088895;28;20032;-72
2022/11/17 14:22:09;;;;;;;1.38;0.70;;;;;;;;;;5106879;28;20035;-72
2022/11/17 14:24:35;;;;;;;1.98;0.70;;;;;;;;;;5107679;28;20084;-72
2022/11/17 14:27:03;;;;;;;1.67;0.82;;;;;;;;;;5107229;28;20559;-72
2022/11/17 14:29:29;;;;;;;2.08;0.80;;;;;;;;;;5107709;28;20027;-72
2022/11/17 14:31:55;;;;;;;1.77;0.80;;;;;;;;;;5102767;28;21290;-72
2022/11/17 14:34:21;;;;;;;2.15;0.75;;;;;;;;;;5082355;27;20054;-72
2022/11/17 14:36:50;;;;;;;1.08;0.80;;;;;;;;;;5103632;28;21088;-72
2022/11/17 14:39:16;;;;;;;2.53;0.63;;;;;;;;;;5095892;28;20698;-72
2022/11/17 14:41:43;;;;;;;0.73;0.70;;;;;;;;;;5096375;28;20019;-72
2022/11/17 14:44:10;;;;;;;0.90;0.70;;;;;;;;;;5097216;28;20164;-72
2022/11/17 14:46:36;;;;;;;0.70;0.70;;;;;;;;;;5095899;28;20413;-72
2022/11/17 14:49:01;;;;;;;1.65;0.73;;;;;;;;;;5100036;28;20531;-72
2022/11/17 14:51:26;;;;;;;0.52;0.50;;;;;;;;;;5103451;28;20035;-72
2022/11/17 14:53:53;;;;;;;0.68;0.60;;;;;;;;;;5087805;28;20023;-72
2022/11/17 14:56:20;;;;;;;1.95;0.85;;;;;;;;;;5086587;28;20015;-72
2022/11/17 14:58:46;;;;;;;1.60;0.80;;;;;;;;;;5099529;28;20036;-71
2022/11/17 15:01:23;;;;;;;0.75;0.70;;;;;;;;;;5086214;28;20031;-71
2022/11/17 15:03:51;;;;;;;2.30;0.90;;;;;;;;;;5085330;28;20031;-71
2022/11/17 15:06:16;;;;;;;2.00;0.80;;;;;;;;;;5085704;28;20039;-71
2022/11/17 15:08:41;;;;;;;3.13;1.15;;;;;;;;;;5085899;28;20020;-71
2022/11/17 15:11:13;;;;;;;0.88;0.70;;;;;;;;;;5084203;28;20150;-71
2022/11/17 15:13:38;;;;;;;5.45;0.90;;;;;;;;;;5104757;28;20024;-71
2022/11/17 15:16:04;;;;;;;7.55;1.02;;;;;;;;;;5105180;28;20072;-75
2022/11/17 15:18:31;;;;;;;1.17;0.75;;;;;;;;;;5083573;28;20074;-74
2022/11/17 15:21:05;;;;;;;2.95;0.80;;;;;;;;;;5080796;28;20596;-74
2022/11/17 15:23:31;;;;;;;1.15;0.90;;;;;;;;;;5098764;28;20032;-74
2022/11/17 15:25:57;;;;;;;1.35;1.02;;;;;;;;;;5091550;28;20048;-74
2022/11/17 15:28:23;;;;;;;2.28;1.00;;;;;;;;;;5095598;28;20108;-74
2022/11/17 15:30:49;;;;;;;4.45;1.33;;;;;;;;;;5081196;28;20670;-74